sensor_id;sensor_type;location;lat;lon;timestamp;P1;durP1;ratioP1;P2;durP2;ratioP2
9823;SDS011;4951;50.778;7.196;2024-02-15T00:00:05;4.23;;;3.40;;
9823;SDS011;4951;50.778;7.196;2024-02-15T00:02:39;4.93;;;3.33;;
9823;SDS011;4951;50.778;7.196;2024-02-15T00:05:11;5.93;;;3.70;;
9823;SDS011;4951;50.778;7.196;2024-02-15T00:07:54;6.03;;;4.03;;
9823;SDS011;4951;50.778;7.196;2024-02-15T00:10:22;4.33;;;3.00;;
9823;SDS011;4951;50.778;7.196;2024-02-15T00:12:57;5.67;;;3.27;;
9823;SDS011;4951;50.778;7.196;2024-02-15T00:15:25;4.70;;;3.23;;
9823;SDS011;4951;50.778;7.196;2024-02-15T00:17:54;3.50;;;3.20;;
9823;SDS011;4951;50.778;7.196;2024-02-15T00:20:23;6.70;;;3.50;;
9823;SDS011;4951;50.778;7.196;2024-02-15T00:22:57;6.93;;;3.70;;
9823;SDS011;4951;50.778;7.196;2024-02-15T00:25:25;4.30;;;3.00;;
9823;SDS011;4951;50.778;7.196;2024-02-15T00:27:56;6.23;;;3.30;;
9823;SDS011;4951;50.778;7.196;2024-02-15T00:30:33;5.17;;;3.27;;
9823;SDS011;4951;50.778;7.196;2024-02-15T00:33:06;7.53;;;3.40;;
9823;SDS011;4951;50.778;7.196;2024-02-15T00:35:41;4.40;;;3.40;;
9823;SDS011;4951;50.778;7.196;2024-02-15T00:38:11;3.97;;;3.50;;
9823;SDS011;4951;50.778;7.196;2024-02-15T00:40:39;4.77;;;3.50;;
9823;SDS011;4951;50.778;7.196;2024-02-15T00:43:07;6.33;;;4.00;;
9823;SDS011;4951;50.778;7.196;2024-02-15T00:45:39;6.03;;;4.50;;
9823;SDS011;4951;50.778;7.196;2024-02-15T00:48:08;6.77;;;4.87;;
9823;SDS011;4951;50.778;7.196;2024-02-15T00:50:39;6.00;;;5.30;;
9823;SDS011;4951;50.778;7.196;2024-02-15T00:53:07;6.37;;;4.63;;
9823;SDS011;4951;50.778;7.196;2024-02-15T00:55:36;6.93;;;4.47;;
9823;SDS011;4951;50.778;7.196;2024-02-15T00:58:03;5.57;;;4.20;;
9823;SDS011;4951;50.778;7.196;2024-02-15T01:00:31;6.13;;;4.50;;
9823;SDS011;4951;50.778;7.196;2024-02-15T01:02:58;7.07;;;4.73;;
9823;SDS011;4951;50.778;7.196;2024-02-15T01:05:39;4.57;;;4.13;;
9823;SDS011;4951;50.778;7.196;2024-02-15T01:08:12;7.60;;;4.87;;
9823;SDS011;4951;50.778;7.196;2024-02-15T01:10:46;6.07;;;4.70;;
9823;SDS011;4951;50.778;7.196;2024-02-15T01:13:16;7.80;;;5.77;;
9823;SDS011;4951;50.778;7.196;2024-02-15T01:15:44;5.57;;;4.53;;
9823;SDS011;4951;50.778;7.196;2024-02-15T01:18:13;10.77;;;6.37;;
9823;SDS011;4951;50.778;7.196;2024-02-15T01:20:41;8.43;;;5.53;;
9823;SDS011;4951;50.778;7.196;2024-02-15T01:23:13;7.57;;;5.40;;
9823;SDS011;4951;50.778;7.196;2024-02-15T01:25:42;5.43;;;4.63;;
9823;SDS011;4951;50.778;7.196;2024-02-15T01:28:15;11.27;;;4.77;;
9823;SDS011;4951;50.778;7.196;2024-02-15T01:30:42;5.47;;;4.57;;
9823;SDS011;4951;50.778;7.196;2024-02-15T01:33:13;4.87;;;4.37;;
9823;SDS011;4951;50.778;7.196;2024-02-15T01:35:45;7.17;;;3.97;;
9823;SDS011;4951;50.778;7.196;2024-02-15T01:38:16;7.30;;;4.20;;
9823;SDS011;4951;50.778;7.196;2024-02-15T01:40:46;4.63;;;3.90;;
9823;SDS011;4951;50.778;7.196;2024-02-15T01:43:19;8.93;;;5.43;;
9823;SDS011;4951;50.778;7.196;2024-02-15T01:45:48;7.13;;;3.70;;
9823;SDS011;4951;50.778;7.196;2024-02-15T01:48:18;6.77;;;3.83;;
9823;SDS011;4951;50.778;7.196;2024-02-15T01:50:56;4.23;;;3.23;;
9823;SDS011;4951;50.778;7.196;2024-02-15T01:53:26;7.63;;;4.20;;
9823;SDS011;4951;50.778;7.196;2024-02-15T01:55:55;6.33;;;3.40;;
9823;SDS011;4951;50.778;7.196;2024-02-15T01:58:25;5.43;;;3.20;;
9823;SDS011;4951;50.778;7.196;2024-02-15T02:00:58;4.47;;;2.97;;
9823;SDS011;4951;50.778;7.196;2024-02-15T02:03:36;7.17;;;3.07;;
9823;SDS011;4951;50.778;7.196;2024-02-15T02:06:03;4.97;;;3.10;;
9823;SDS011;4951;50.778;7.196;2024-02-15T02:08:33;4.07;;;2.70;;
9823;SDS011;4951;50.778;7.196;2024-02-15T02:22:40;3.10;;;2.00;;
9823;SDS011;4951;50.778;7.196;2024-02-15T02:25:18;4.03;;;2.47;;
9823;SDS011;4951;50.778;7.196;2024-02-15T02:27:47;4.03;;;2.30;;
9823;SDS011;4951;50.778;7.196;2024-02-15T02:30:17;5.10;;;2.50;;
9823;SDS011;4951;50.778;7.196;2024-02-15T02:32:45;5.13;;;2.57;;
9823;SDS011;4951;50.778;7.196;2024-02-15T02:35:13;6.53;;;2.97;;
9823;SDS011;4951;50.778;7.196;2024-02-15T02:37:41;4.57;;;2.10;;
9823;SDS011;4951;50.778;7.196;2024-02-15T02:40:10;6.03;;;2.43;;
9823;SDS011;4951;50.778;7.196;2024-02-15T02:42:47;5.00;;;2.50;;
9823;SDS011;4951;50.778;7.196;2024-02-15T02:45:17;5.53;;;2.20;;
9823;SDS011;4951;50.778;7.196;2024-02-15T02:47:49;4.13;;;2.23;;
9823;SDS011;4951;50.778;7.196;2024-02-15T02:50:21;4.53;;;2.00;;
9823;SDS011;4951;50.778;7.196;2024-02-15T02:52:52;3.67;;;2.10;;
9823;SDS011;4951;50.778;7.196;2024-02-15T02:55:22;2.67;;;1.80;;
9823;SDS011;4951;50.778;7.196;2024-02-15T02:57:54;5.23;;;2.27;;
9823;SDS011;4951;50.778;7.196;2024-02-15T03:00:22;4.87;;;2.20;;
9823;SDS011;4951;50.778;7.196;2024-02-15T03:02:52;4.13;;;1.90;;
9823;SDS011;4951;50.778;7.196;2024-02-15T03:05:22;3.47;;;2.10;;
9823;SDS011;4951;50.778;7.196;2024-02-15T03:07:53;3.90;;;2.27;;
9823;SDS011;4951;50.778;7.196;2024-02-15T03:10:27;3.77;;;1.90;;
9823;SDS011;4951;50.778;7.196;2024-02-15T03:12:58;3.83;;;2.10;;
9823;SDS011;4951;50.778;7.196;2024-02-15T03:15:28;3.87;;;1.93;;
9823;SDS011;4951;50.778;7.196;2024-02-15T03:17:57;4.63;;;1.80;;
9823;SDS011;4951;50.778;7.196;2024-02-15T03:20:27;4.17;;;2.30;;
9823;SDS011;4951;50.778;7.196;2024-02-15T03:22:57;3.13;;;1.90;;
9823;SDS011;4951;50.778;7.196;2024-02-15T03:25:27;4.33;;;1.93;;
9823;SDS011;4951;50.778;7.196;2024-02-15T03:28:00;5.30;;;2.37;;
9823;SDS011;4951;50.778;7.196;2024-02-15T03:30:32;2.97;;;1.80;;
9823;SDS011;4951;50.778;7.196;2024-02-15T03:33:03;3.40;;;2.00;;
9823;SDS011;4951;50.778;7.196;2024-02-15T03:35:35;3.90;;;1.90;;
9823;SDS011;4951;50.778;7.196;2024-02-15T03:38:10;2.50;;;1.70;;
9823;SDS011;4951;50.778;7.196;2024-02-15T03:40:45;4.17;;;2.00;;
9823;SDS011;4951;50.778;7.196;2024-02-15T03:43:19;4.50;;;1.70;;
9823;SDS011;4951;50.778;7.196;2024-02-15T03:45:48;3.80;;;1.70;;
9823;SDS011;4951;50.778;7.196;2024-02-15T03:48:20;4.87;;;1.80;;
9823;SDS011;4951;50.778;7.196;2024-02-15T03:50:51;3.93;;;1.93;;
9823;SDS011;4951;50.778;7.196;2024-02-15T03:53:22;3.27;;;2.47;;
9823;SDS011;4951;50.778;7.196;2024-02-15T03:55:55;3.37;;;2.07;;
9823;SDS011;4951;50.778;7.196;2024-02-15T03:58:26;3.07;;;1.93;;
9823;SDS011;4951;50.778;7.196;2024-02-15T04:01:04;4.47;;;2.00;;
9823;SDS011;4951;50.778;7.196;2024-02-15T04:03:33;5.50;;;1.80;;
9823;SDS011;4951;50.778;7.196;2024-02-15T04:06:03;3.47;;;2.17;;
9823;SDS011;4951;50.778;7.196;2024-02-15T04:08:50;3.47;;;1.70;;
9823;SDS011;4951;50.778;7.196;2024-02-15T04:11:25;3.80;;;1.90;;
9823;SDS011;4951;50.778;7.196;2024-02-15T04:13:57;3.37;;;1.80;;
9823;SDS011;4951;50.778;7.196;2024-02-15T04:16:35;3.53;;;1.90;;
9823;SDS011;4951;50.778;7.196;2024-02-15T04:19:06;3.23;;;2.07;;
9823;SDS011;4951;50.778;7.196;2024-02-15T04:21:40;4.13;;;2.30;;
9823;SDS011;4951;50.778;7.196;2024-02-15T04:24:19;3.33;;;2.00;;
9823;SDS011;4951;50.778;7.196;2024-02-15T04:26:53;3.67;;;2.10;;
9823;SDS011;4951;50.778;7.196;2024-02-15T04:29:41;3.87;;;2.00;;
9823;SDS011;4951;50.778;7.196;2024-02-15T04:32:29;5.13;;;2.10;;
9823;SDS011;4951;50.778;7.196;2024-02-15T04:35:20;4.10;;;2.30;;
9823;SDS011;4951;50.778;7.196;2024-02-15T04:38:01;4.77;;;2.07;;
9823;SDS011;4951;50.778;7.196;2024-02-15T04:40:41;4.03;;;2.10;;
9823;SDS011;4951;50.778;7.196;2024-02-15T04:43:22;4.13;;;2.30;;
9823;SDS011;4951;50.778;7.196;2024-02-15T04:46:02;3.50;;;1.97;;
9823;SDS011;4951;50.778;7.196;2024-02-15T04:48:37;4.23;;;2.80;;
9823;SDS011;4951;50.778;7.196;2024-02-15T04:51:10;5.40;;;2.60;;
9823;SDS011;4951;50.778;7.196;2024-02-15T04:53:47;6.03;;;2.33;;
9823;SDS011;4951;50.778;7.196;2024-02-15T04:56:26;3.60;;;2.57;;
9823;SDS011;4951;50.778;7.196;2024-02-15T04:58:56;4.00;;;2.50;;
9823;SDS011;4951;50.778;7.196;2024-02-15T05:01:35;5.93;;;2.47;;
9823;SDS011;4951;50.778;7.196;2024-02-15T05:04:06;3.93;;;2.07;;
9823;SDS011;4951;50.778;7.196;2024-02-15T05:06:35;4.77;;;2.63;;
9823;SDS011;4951;50.778;7.196;2024-02-15T05:09:04;6.30;;;2.33;;
9823;SDS011;4951;50.778;7.196;2024-02-15T05:11:42;3.83;;;2.30;;
9823;SDS011;4951;50.778;7.196;2024-02-15T05:14:15;3.97;;;2.43;;
9823;SDS011;4951;50.778;7.196;2024-02-15T05:16:50;5.20;;;2.60;;
9823;SDS011;4951;50.778;7.196;2024-02-15T05:19:19;4.20;;;2.37;;
9823;SDS011;4951;50.778;7.196;2024-02-15T05:21:50;5.87;;;2.80;;
9823;SDS011;4951;50.778;7.196;2024-02-15T05:24:18;5.13;;;2.27;;
9823;SDS011;4951;50.778;7.196;2024-02-15T05:26:48;4.13;;;2.40;;
9823;SDS011;4951;50.778;7.196;2024-02-15T05:29:18;4.13;;;2.20;;
9823;SDS011;4951;50.778;7.196;2024-02-15T05:31:54;4.27;;;2.47;;
9823;SDS011;4951;50.778;7.196;2024-02-15T05:34:23;4.57;;;2.40;;
9823;SDS011;4951;50.778;7.196;2024-02-15T05:36:52;4.27;;;2.57;;
9823;SDS011;4951;50.778;7.196;2024-02-15T05:39:19;3.27;;;2.40;;
9823;SDS011;4951;50.778;7.196;2024-02-15T05:41:48;3.17;;;1.90;;
9823;SDS011;4951;50.778;7.196;2024-02-15T05:44:17;6.03;;;2.93;;
9823;SDS011;4951;50.778;7.196;2024-02-15T05:46:49;5.03;;;2.63;;
9823;SDS011;4951;50.778;7.196;2024-02-15T05:49:20;4.30;;;2.70;;
9823;SDS011;4951;50.778;7.196;2024-02-15T05:51:50;4.53;;;2.80;;
9823;SDS011;4951;50.778;7.196;2024-02-15T05:54:19;4.43;;;2.87;;
9823;SDS011;4951;50.778;7.196;2024-02-15T05:56:53;6.27;;;2.63;;
9823;SDS011;4951;50.778;7.196;2024-02-15T05:59:22;5.47;;;2.97;;
9823;SDS011;4951;50.778;7.196;2024-02-15T06:02:09;5.40;;;3.00;;
9823;SDS011;4951;50.778;7.196;2024-02-15T06:04:42;6.90;;;3.33;;
9823;SDS011;4951;50.778;7.196;2024-02-15T06:07:17;5.00;;;3.37;;
9823;SDS011;4951;50.778;7.196;2024-02-15T06:09:48;5.17;;;3.10;;
9823;SDS011;4951;50.778;7.196;2024-02-15T06:12:18;3.10;;;2.80;;
9823;SDS011;4951;50.778;7.196;2024-02-15T06:15:05;5.53;;;2.90;;
9823;SDS011;4951;50.778;7.196;2024-02-15T06:17:43;5.00;;;3.30;;
9823;SDS011;4951;50.778;7.196;2024-02-15T06:20:15;6.00;;;3.33;;
9823;SDS011;4951;50.778;7.196;2024-02-15T06:23:03;4.70;;;2.73;;
9823;SDS011;4951;50.778;7.196;2024-02-15T06:25:35;8.17;;;2.90;;
9823;SDS011;4951;50.778;7.196;2024-02-15T06:28:04;7.83;;;3.40;;
9823;SDS011;4951;50.778;7.196;2024-02-15T06:30:44;5.73;;;2.90;;
9823;SDS011;4951;50.778;7.196;2024-02-15T06:33:29;5.13;;;2.73;;
9823;SDS011;4951;50.778;7.196;2024-02-15T06:36:16;4.40;;;3.03;;
9823;SDS011;4951;50.778;7.196;2024-02-15T06:39:03;5.33;;;3.00;;
9823;SDS011;4951;50.778;7.196;2024-02-15T06:41:50;5.77;;;3.27;;
9823;SDS011;4951;50.778;7.196;2024-02-15T06:44:25;5.47;;;3.30;;
9823;SDS011;4951;50.778;7.196;2024-02-15T06:46:56;10.80;;;3.93;;
9823;SDS011;4951;50.778;7.196;2024-02-15T06:49:27;9.90;;;3.63;;
9823;SDS011;4951;50.778;7.196;2024-02-15T06:51:58;7.00;;;3.50;;
9823;SDS011;4951;50.778;7.196;2024-02-15T06:54:27;5.43;;;2.93;;
9823;SDS011;4951;50.778;7.196;2024-02-15T06:56:57;9.13;;;3.70;;
9823;SDS011;4951;50.778;7.196;2024-02-15T06:59:25;6.30;;;3.17;;
9823;SDS011;4951;50.778;7.196;2024-02-15T07:01:55;5.93;;;3.43;;
9823;SDS011;4951;50.778;7.196;2024-02-15T07:04:25;6.20;;;3.77;;
9823;SDS011;4951;50.778;7.196;2024-02-15T07:06:59;6.17;;;3.67;;
9823;SDS011;4951;50.778;7.196;2024-02-15T07:09:29;8.80;;;3.67;;
9823;SDS011;4951;50.778;7.196;2024-02-15T07:11:59;7.80;;;3.70;;
9823;SDS011;4951;50.778;7.196;2024-02-15T07:14:28;10.13;;;4.00;;
9823;SDS011;4951;50.778;7.196;2024-02-15T07:16:58;7.87;;;3.47;;
9823;SDS011;4951;50.778;7.196;2024-02-15T07:19:45;7.17;;;3.93;;
9823;SDS011;4951;50.778;7.196;2024-02-15T07:22:16;6.83;;;3.33;;
9823;SDS011;4951;50.778;7.196;2024-02-15T07:24:51;5.43;;;3.60;;
9823;SDS011;4951;50.778;7.196;2024-02-15T07:27:20;9.90;;;3.80;;
9823;SDS011;4951;50.778;7.196;2024-02-15T07:29:53;8.23;;;3.27;;
9823;SDS011;4951;50.778;7.196;2024-02-15T07:32:26;6.33;;;3.40;;
9823;SDS011;4951;50.778;7.196;2024-02-15T07:34:55;7.20;;;3.77;;
9823;SDS011;4951;50.778;7.196;2024-02-15T07:37:26;5.80;;;3.50;;
9823;SDS011;4951;50.778;7.196;2024-02-15T07:39:55;6.60;;;3.03;;
9823;SDS011;4951;50.778;7.196;2024-02-15T07:42:23;6.17;;;3.77;;
9823;SDS011;4951;50.778;7.196;2024-02-15T07:44:56;8.73;;;3.80;;
9823;SDS011;4951;50.778;7.196;2024-02-15T07:47:27;8.70;;;4.00;;
9823;SDS011;4951;50.778;7.196;2024-02-15T07:49:58;7.03;;;3.80;;
9823;SDS011;4951;50.778;7.196;2024-02-15T07:52:28;10.80;;;4.90;;
9823;SDS011;4951;50.778;7.196;2024-02-15T07:54:57;8.87;;;3.70;;
9823;SDS011;4951;50.778;7.196;2024-02-15T07:57:28;5.30;;;2.80;;
9823;SDS011;4951;50.778;7.196;2024-02-15T07:59:59;10.23;;;3.83;;
9823;SDS011;4951;50.778;7.196;2024-02-15T08:02:30;6.30;;;3.60;;
9823;SDS011;4951;50.778;7.196;2024-02-15T08:05:00;5.97;;;3.13;;
9823;SDS011;4951;50.778;7.196;2024-02-15T08:07:40;9.90;;;3.83;;
9823;SDS011;4951;50.778;7.196;2024-02-15T08:10:10;11.57;;;4.30;;
9823;SDS011;4951;50.778;7.196;2024-02-15T08:12:44;6.97;;;4.00;;
9823;SDS011;4951;50.778;7.196;2024-02-15T08:15:20;7.03;;;3.53;;
9823;SDS011;4951;50.778;7.196;2024-02-15T08:17:57;6.67;;;3.90;;
9823;SDS011;4951;50.778;7.196;2024-02-15T08:20:26;6.70;;;3.30;;
9823;SDS011;4951;50.778;7.196;2024-02-15T08:23:01;8.93;;;4.37;;
9823;SDS011;4951;50.778;7.196;2024-02-15T08:25:32;9.83;;;4.60;;
9823;SDS011;4951;50.778;7.196;2024-02-15T08:28:06;8.20;;;4.30;;
9823;SDS011;4951;50.778;7.196;2024-02-15T08:30:37;12.23;;;5.50;;
9823;SDS011;4951;50.778;7.196;2024-02-15T08:33:06;13.03;;;5.33;;
9823;SDS011;4951;50.778;7.196;2024-02-15T08:35:41;10.43;;;4.90;;
9823;SDS011;4951;50.778;7.196;2024-02-15T08:38:13;9.70;;;5.07;;
9823;SDS011;4951;50.778;7.196;2024-02-15T08:40:41;7.80;;;3.90;;
9823;SDS011;4951;50.778;7.196;2024-02-15T08:43:14;7.67;;;4.67;;
9823;SDS011;4951;50.778;7.196;2024-02-15T08:45:45;10.43;;;5.23;;
9823;SDS011;4951;50.778;7.196;2024-02-15T08:48:17;8.87;;;4.93;;
9823;SDS011;4951;50.778;7.196;2024-02-15T08:50:52;7.83;;;4.47;;
9823;SDS011;4951;50.778;7.196;2024-02-15T08:53:22;8.37;;;4.23;;
9823;SDS011;4951;50.778;7.196;2024-02-15T08:55:51;9.00;;;4.20;;
9823;SDS011;4951;50.778;7.196;2024-02-15T08:58:20;11.33;;;3.97;;
9823;SDS011;4951;50.778;7.196;2024-02-15T09:01:01;12.10;;;4.10;;
9823;SDS011;4951;50.778;7.196;2024-02-15T09:03:31;8.63;;;4.07;;
9823;SDS011;4951;50.778;7.196;2024-02-15T09:06:00;9.20;;;4.10;;
9823;SDS011;4951;50.778;7.196;2024-02-15T09:08:41;7.83;;;3.70;;
9823;SDS011;4951;50.778;7.196;2024-02-15T09:11:10;13.43;;;4.13;;
9823;SDS011;4951;50.778;7.196;2024-02-15T09:13:40;10.20;;;3.23;;
9823;SDS011;4951;50.778;7.196;2024-02-15T09:16:09;10.33;;;4.00;;
9823;SDS011;4951;50.778;7.196;2024-02-15T09:18:42;5.37;;;2.90;;
9823;SDS011;4951;50.778;7.196;2024-02-15T09:21:14;9.03;;;3.13;;
9823;SDS011;4951;50.778;7.196;2024-02-15T09:23:44;6.33;;;2.87;;
9823;SDS011;4951;50.778;7.196;2024-02-15T09:26:12;5.07;;;2.33;;
9823;SDS011;4951;50.778;7.196;2024-02-15T09:28:47;5.07;;;2.50;;
9823;SDS011;4951;50.778;7.196;2024-02-15T09:31:18;6.93;;;2.67;;
9823;SDS011;4951;50.778;7.196;2024-02-15T09:33:45;5.53;;;2.53;;
9823;SDS011;4951;50.778;7.196;2024-02-15T09:36:14;7.57;;;2.43;;
9823;SDS011;4951;50.778;7.196;2024-02-15T09:38:45;7.03;;;2.77;;
9823;SDS011;4951;50.778;7.196;2024-02-15T09:41:20;6.93;;;2.80;;
9823;SDS011;4951;50.778;7.196;2024-02-15T09:43:50;5.33;;;2.50;;
9823;SDS011;4951;50.778;7.196;2024-02-15T09:46:22;5.77;;;2.50;;
9823;SDS011;4951;50.778;7.196;2024-02-15T09:48:52;5.83;;;2.47;;
9823;SDS011;4951;50.778;7.196;2024-02-15T09:51:25;8.13;;;2.40;;
9823;SDS011;4951;50.778;7.196;2024-02-15T09:53:57;5.67;;;2.50;;
9823;SDS011;4951;50.778;7.196;2024-02-15T09:56:30;3.97;;;2.20;;
9823;SDS011;4951;50.778;7.196;2024-02-15T09:59:01;5.67;;;2.37;;
9823;SDS011;4951;50.778;7.196;2024-02-15T10:01:32;6.60;;;2.53;;
9823;SDS011;4951;50.778;7.196;2024-02-15T10:04:18;5.80;;;2.60;;
9823;SDS011;4951;50.778;7.196;2024-02-15T10:06:52;6.83;;;2.53;;
9823;SDS011;4951;50.778;7.196;2024-02-15T10:09:24;4.77;;;2.40;;
9823;SDS011;4951;50.778;7.196;2024-02-15T10:11:59;4.57;;;2.40;;
9823;SDS011;4951;50.778;7.196;2024-02-15T10:14:30;6.13;;;2.70;;
9823;SDS011;4951;50.778;7.196;2024-02-15T10:17:05;4.17;;;2.03;;
9823;SDS011;4951;50.778;7.196;2024-02-15T10:19:42;5.47;;;2.50;;
9823;SDS011;4951;50.778;7.196;2024-02-15T10:22:16;9.93;;;2.37;;
9823;SDS011;4951;50.778;7.196;2024-02-15T10:24:48;4.93;;;2.50;;
9823;SDS011;4951;50.778;7.196;2024-02-15T10:27:18;3.97;;;2.20;;
9823;SDS011;4951;50.778;7.196;2024-02-15T10:29:58;3.47;;;1.93;;
9823;SDS011;4951;50.778;7.196;2024-02-15T10:32:44;4.40;;;1.97;;
9823;SDS011;4951;50.778;7.196;2024-02-15T10:35:18;5.93;;;2.13;;
9823;SDS011;4951;50.778;7.196;2024-02-15T10:37:50;5.33;;;2.20;;
9823;SDS011;4951;50.778;7.196;2024-02-15T10:40:24;3.40;;;2.00;;
9823;SDS011;4951;50.778;7.196;2024-02-15T10:42:52;4.20;;;1.80;;
9823;SDS011;4951;50.778;7.196;2024-02-15T10:45:23;3.70;;;1.77;;
9823;SDS011;4951;50.778;7.196;2024-02-15T10:47:58;5.50;;;2.00;;
9823;SDS011;4951;50.778;7.196;2024-02-15T10:50:27;4.53;;;1.80;;
9823;SDS011;4951;50.778;7.196;2024-02-15T10:52:57;4.77;;;2.00;;
9823;SDS011;4951;50.778;7.196;2024-02-15T10:55:35;3.87;;;1.90;;
9823;SDS011;4951;50.778;7.196;2024-02-15T10:58:09;3.93;;;1.90;;
9823;SDS011;4951;50.778;7.196;2024-02-15T11:00:48;7.47;;;2.53;;
9823;SDS011;4951;50.778;7.196;2024-02-15T11:03:32;3.33;;;1.73;;
9823;SDS011;4951;50.778;7.196;2024-02-15T11:06:04;4.30;;;1.83;;
9823;SDS011;4951;50.778;7.196;2024-02-15T11:08:36;3.57;;;2.03;;
9823;SDS011;4951;50.778;7.196;2024-02-15T11:11:10;3.93;;;1.80;;
9823;SDS011;4951;50.778;7.196;2024-02-15T11:13:45;3.40;;;1.80;;
9823;SDS011;4951;50.778;7.196;2024-02-15T11:22:17;4.20;;;1.90;;
9823;SDS011;4951;50.778;7.196;2024-02-15T11:24:54;3.93;;;1.80;;
9823;SDS011;4951;50.778;7.196;2024-02-15T11:27:26;5.57;;;2.20;;
9823;SDS011;4951;50.778;7.196;2024-02-15T11:29:55;4.77;;;2.00;;
9823;SDS011;4951;50.778;7.196;2024-02-15T11:32:37;6.47;;;2.33;;
9823;SDS011;4951;50.778;7.196;2024-02-15T11:35:15;5.20;;;2.00;;
9823;SDS011;4951;50.778;7.196;2024-02-15T11:37:57;2.73;;;1.93;;
9823;SDS011;4951;50.778;7.196;2024-02-15T11:43:52;2.80;;;2.00;;
9823;SDS011;4951;50.778;7.196;2024-02-15T11:46:27;3.70;;;1.90;;
9823;SDS011;4951;50.778;7.196;2024-02-15T11:48:58;5.83;;;2.00;;
9823;SDS011;4951;50.778;7.196;2024-02-15T11:51:27;3.70;;;1.90;;
9823;SDS011;4951;50.778;7.196;2024-02-15T11:54:05;3.33;;;1.60;;
9823;SDS011;4951;50.778;7.196;2024-02-15T11:56:52;4.90;;;2.20;;
9823;SDS011;4951;50.778;7.196;2024-02-15T11:59:46;4.40;;;2.20;;
9823;SDS011;4951;50.778;7.196;2024-02-15T12:02:39;3.43;;;2.00;;
9823;SDS011;4951;50.778;7.196;2024-02-15T12:05:29;3.70;;;1.90;;
9823;SDS011;4951;50.778;7.196;2024-02-15T12:08:17;3.77;;;2.10;;
9823;SDS011;4951;50.778;7.196;2024-02-15T12:11:06;4.33;;;2.37;;
9823;SDS011;4951;50.778;7.196;2024-02-15T12:13:52;2.83;;;1.80;;
9823;SDS011;4951;50.778;7.196;2024-02-15T12:16:44;4.27;;;2.00;;
9823;SDS011;4951;50.778;7.196;2024-02-15T12:19:32;4.97;;;1.90;;
9823;SDS011;4951;50.778;7.196;2024-02-15T12:22:02;4.60;;;2.10;;
9823;SDS011;4951;50.778;7.196;2024-02-15T12:24:33;6.77;;;1.87;;
9823;SDS011;4951;50.778;7.196;2024-02-15T12:27:10;4.53;;;1.77;;
9823;SDS011;4951;50.778;7.196;2024-02-15T12:29:52;3.50;;;2.03;;
9823;SDS011;4951;50.778;7.196;2024-02-15T12:32:23;3.40;;;1.93;;
9823;SDS011;4951;50.778;7.196;2024-02-15T12:34:53;2.87;;;1.93;;
9823;SDS011;4951;50.778;7.196;2024-02-15T12:37:43;3.37;;;1.73;;
9823;SDS011;4951;50.778;7.196;2024-02-15T12:40:12;6.07;;;2.20;;
9823;SDS011;4951;50.778;7.196;2024-02-15T12:42:44;3.20;;;2.00;;
9823;SDS011;4951;50.778;7.196;2024-02-15T12:45:18;4.57;;;2.17;;
9823;SDS011;4951;50.778;7.196;2024-02-15T12:47:55;3.93;;;2.10;;
9823;SDS011;4951;50.778;7.196;2024-02-15T12:50:34;3.30;;;2.00;;
9823;SDS011;4951;50.778;7.196;2024-02-15T12:53:08;3.57;;;1.80;;
9823;SDS011;4951;50.778;7.196;2024-02-15T12:55:40;3.67;;;2.17;;
9823;SDS011;4951;50.778;7.196;2024-02-15T12:58:18;3.87;;;1.90;;
9823;SDS011;4951;50.778;7.196;2024-02-15T13:00:59;7.83;;;1.90;;
9823;SDS011;4951;50.778;7.196;2024-02-15T13:03:42;4.18;;;1.98;;
9823;SDS011;4951;50.778;7.196;2024-02-15T13:06:11;3.73;;;1.80;;
9823;SDS011;4951;50.778;7.196;2024-02-15T13:08:44;5.60;;;2.03;;
9823;SDS011;4951;50.778;7.196;2024-02-15T13:11:16;3.95;;;1.80;;
9823;SDS011;4951;50.778;7.196;2024-02-15T13:13:46;3.23;;;1.93;;
9823;SDS011;4951;50.778;7.196;2024-02-15T13:16:15;3.00;;;1.80;;
9823;SDS011;4951;50.778;7.196;2024-02-15T13:18:46;4.13;;;2.00;;
9823;SDS011;4951;50.778;7.196;2024-02-15T13:21:18;5.33;;;2.30;;
9823;SDS011;4951;50.778;7.196;2024-02-15T13:23:46;3.40;;;1.80;;
9823;SDS011;4951;50.778;7.196;2024-02-15T13:26:17;2.17;;;1.60;;
9823;SDS011;4951;50.778;7.196;2024-02-15T13:28:45;4.37;;;1.70;;
9823;SDS011;4951;50.778;7.196;2024-02-15T13:31:25;3.53;;;1.67;;
9823;SDS011;4951;50.778;7.196;2024-02-15T13:33:59;3.23;;;1.60;;
9823;SDS011;4951;50.778;7.196;2024-02-15T13:36:27;6.37;;;1.80;;
9823;SDS011;4951;50.778;7.196;2024-02-15T13:38:57;2.80;;;1.80;;
9823;SDS011;4951;50.778;7.196;2024-02-15T13:41:25;4.50;;;2.13;;
9823;SDS011;4951;50.778;7.196;2024-02-15T13:43:54;4.17;;;2.10;;
9823;SDS011;4951;50.778;7.196;2024-02-15T13:46:22;5.13;;;1.80;;
9823;SDS011;4951;50.778;7.196;2024-02-15T13:48:51;3.57;;;1.53;;
9823;SDS011;4951;50.778;7.196;2024-02-15T13:51:23;2.77;;;1.73;;
9823;SDS011;4951;50.778;7.196;2024-02-15T13:53:56;3.90;;;1.87;;
9823;SDS011;4951;50.778;7.196;2024-02-15T13:56:27;6.67;;;1.67;;
9823;SDS011;4951;50.778;7.196;2024-02-15T13:58:58;3.10;;;1.60;;
9823;SDS011;4951;50.778;7.196;2024-02-15T14:01:28;3.03;;;1.60;;
9823;SDS011;4951;50.778;7.196;2024-02-15T14:03:58;4.33;;;1.60;;
9823;SDS011;4951;50.778;7.196;2024-02-15T14:06:29;3.93;;;1.70;;
9823;SDS011;4951;50.778;7.196;2024-02-15T14:09:02;5.13;;;1.73;;
9823;SDS011;4951;50.778;7.196;2024-02-15T14:11:50;11.17;;;1.93;;
9823;SDS011;4951;50.778;7.196;2024-02-15T14:14:39;4.97;;;1.80;;
9823;SDS011;4951;50.778;7.196;2024-02-15T14:17:11;5.67;;;1.60;;
9823;SDS011;4951;50.778;7.196;2024-02-15T14:19:45;4.70;;;1.87;;
9823;SDS011;4951;50.778;7.196;2024-02-15T14:22:20;7.30;;;1.50;;
9823;SDS011;4951;50.778;7.196;2024-02-15T14:24:50;6.10;;;1.93;;
9823;SDS011;4951;50.778;7.196;2024-02-15T14:27:21;3.27;;;1.63;;
9823;SDS011;4951;50.778;7.196;2024-02-15T14:29:56;2.50;;;1.60;;
9823;SDS011;4951;50.778;7.196;2024-02-15T14:32:57;5.37;;;1.73;;
9823;SDS011;4951;50.778;7.196;2024-02-15T14:35:33;4.83;;;1.90;;
9823;SDS011;4951;50.778;7.196;2024-02-15T14:38:13;4.67;;;1.53;;
9823;SDS011;4951;50.778;7.196;2024-02-15T14:40:50;7.30;;;1.80;;
9823;SDS011;4951;50.778;7.196;2024-02-15T14:43:22;2.73;;;1.53;;
9823;SDS011;4951;50.778;7.196;2024-02-15T14:45:53;4.83;;;1.90;;
9823;SDS011;4951;50.778;7.196;2024-02-15T14:48:24;3.57;;;1.67;;
9823;SDS011;4951;50.778;7.196;2024-02-15T14:50:54;3.60;;;1.67;;
9823;SDS011;4951;50.778;7.196;2024-02-15T14:53:36;2.40;;;1.47;;
9823;SDS011;4951;50.778;7.196;2024-02-15T14:56:04;3.53;;;1.90;;
9823;SDS011;4951;50.778;7.196;2024-02-15T14:58:37;4.87;;;1.80;;
9823;SDS011;4951;50.778;7.196;2024-02-15T15:01:07;3.83;;;1.83;;
9823;SDS011;4951;50.778;7.196;2024-02-15T15:03:43;5.13;;;1.93;;
9823;SDS011;4951;50.778;7.196;2024-02-15T15:06:24;3.70;;;1.80;;
9823;SDS011;4951;50.778;7.196;2024-02-15T15:09:12;4.43;;;1.83;;
9823;SDS011;4951;50.778;7.196;2024-02-15T15:12:01;7.70;;;2.33;;
9823;SDS011;4951;50.778;7.196;2024-02-15T15:14:47;3.00;;;1.70;;
9823;SDS011;4951;50.778;7.196;2024-02-15T15:17:17;6.20;;;1.93;;
9823;SDS011;4951;50.778;7.196;2024-02-15T15:19:50;3.80;;;1.70;;
9823;SDS011;4951;50.778;7.196;2024-02-15T15:22:18;3.57;;;1.57;;
9823;SDS011;4951;50.778;7.196;2024-02-15T15:24:57;3.07;;;1.60;;
9823;SDS011;4951;50.778;7.196;2024-02-15T15:27:25;3.90;;;1.53;;
9823;SDS011;4951;50.778;7.196;2024-02-15T15:29:58;2.77;;;1.50;;
9823;SDS011;4951;50.778;7.196;2024-02-15T15:32:29;4.17;;;1.70;;
9823;SDS011;4951;50.778;7.196;2024-02-15T15:34:58;6.63;;;1.77;;
9823;SDS011;4951;50.778;7.196;2024-02-15T15:37:30;3.70;;;1.83;;
9823;SDS011;4951;50.778;7.196;2024-02-15T15:40:02;3.50;;;1.80;;
9823;SDS011;4951;50.778;7.196;2024-02-15T15:42:36;4.97;;;2.10;;
9823;SDS011;4951;50.778;7.196;2024-02-15T15:45:12;3.53;;;1.80;;
9823;SDS011;4951;50.778;7.196;2024-02-15T15:47:45;7.83;;;1.90;;
9823;SDS011;4951;50.778;7.196;2024-02-15T15:50:15;2.80;;;1.50;;
9823;SDS011;4951;50.778;7.196;2024-02-15T15:52:46;2.67;;;1.60;;
9823;SDS011;4951;50.778;7.196;2024-02-15T15:55:16;2.93;;;1.87;;
9823;SDS011;4951;50.778;7.196;2024-02-15T15:57:48;4.43;;;1.73;;
9823;SDS011;4951;50.778;7.196;2024-02-15T16:00:24;3.70;;;1.50;;
9823;SDS011;4951;50.778;7.196;2024-02-15T16:03:00;3.60;;;1.90;;
9823;SDS011;4951;50.778;7.196;2024-02-15T16:05:37;5.17;;;1.63;;
9823;SDS011;4951;50.778;7.196;2024-02-15T16:08:10;3.30;;;1.73;;
9823;SDS011;4951;50.778;7.196;2024-02-15T16:10:40;5.13;;;1.90;;
9823;SDS011;4951;50.778;7.196;2024-02-15T16:13:27;4.43;;;1.80;;